Шевердино

Карта отелей и гостиниц, располагающихся рядом с аэропортом Шевердино :

Шевердино
Углич
Ярославская область 57° 37' 58.0188" N, 38° 23' 22.6212" E
Код аэродрома ИКАО
HE38
Код аэродрома RU
ХЕ38
Координаты
N57.63278° E038.38962°
Превышение над уровнем моря
115
Основная полоса
13/31
Курс магнитный
132,5/312,5
Длина основной ВПП
200
Ширина основной ВПП
40
Покрытие основной ВПП
Нетвёрдое (грунт)
Освещение ВПП
По запросу
Тип: 
Вертодром
Класс аэродрома: 
Принадлежность: 
АОН
Статус: 
Действующий
Сайт: 
в разработке
E-mail аэродрома: 
kanank7@mail.ru
Страна: 
Россия
Регион: 
Ярославская область
Город: 
Углич
Дополнительная информация: 
ПП маркирована. Охрана к/с, ограждение (бетонное) по периметру. Рады гостям. Ищут новых друзей. Хозяева авиаторы.

Найти трансфер

С помощью этой формы Вы можете найти трансфер из аэропорта Шевердино в город, аэропорт или вокзал:

Карта места

Javascript is required to view this map.

Погода в аэропортах:

Авиационная погода в Николаеве

Регион: 
Погода METAR: 
UKON 281300Z 13003MPS 2600 -SHRA BR BKN005 BKN///CB 12/12 Q1003 NOSIG
Время наблюдения
2021-11-28T13:00:00Z
Температура C
12.0
Точка росы
12.0
Направление ветра
130
Скорость ветра (узлы)
6
Метео видимость
1.62
Явления погоды
-SHRA BR
Условия полета
IFR

Авиационная погода в Ханты-Мансийске

Регион: 
Погода METAR: 
USHH 281300Z 15002MPS 9999 -SN SCT008 M04/M04 Q1020 R06/450332 NOSIG
Время наблюдения
2021-11-28T13:00:00Z
Температура C
-4.0
Точка росы
-4.0
Направление ветра
150
Скорость ветра (узлы)
4
Метео видимость
6.21
Явления погоды
-SN
Условия полета
VFR
Аэропорт подробнее: 

Авиационная погода в Ужгороде

Регион: 
Погода METAR: 
UKLU 261930Z 10004MPS 080V150 6000 -RA OVC016 06/06 Q0993 TEMPO 2100 -RA BR BKN005 BKN015
Время наблюдения
2021-11-26T19:30:00Z
Температура C
6.0
Точка росы
6.0
Направление ветра
100
Скорость ветра (узлы)
8
Метео видимость
3.73
Явления погоды
-RA
Условия полета
MVFR
Аэропорт подробнее: 

Авиационная погода в Белгороде

Регион: 
Погода METAR: 
UUOB 281300Z 17002MPS 7000 2000E BR OVC012 07/06 Q1008 R11/290060 NOSIG
Время наблюдения
2021-11-28T13:00:00Z
Температура C
7.0
Точка росы
6.0
Направление ветра
170
Скорость ветра (узлы)
4
Метео видимость
4.35
Явления погоды
BR
Условия полета
MVFR
Аэропорт подробнее: